sensor_id;sensor_type;location;lat;lon;timestamp;P1;durP1;ratioP1;P2;durP2;ratioP2
9372;SDS011;10838;52.350;9.790;2022-07-23T00:00:51;985.37;;;900.30;;
9372;SDS011;10838;52.350;9.790;2022-07-23T00:03:18;974.17;;;887.20;;
9372;SDS011;10838;52.350;9.790;2022-07-23T00:05:44;984.27;;;895.70;;
9372;SDS011;10838;52.350;9.790;2022-07-23T00:08:11;980.23;;;893.70;;
9372;SDS011;10838;52.350;9.790;2022-07-23T00:10:38;970.87;;;883.30;;
9372;SDS011;10838;52.350;9.790;2022-07-23T00:13:04;988.50;;;897.57;;
9372;SDS011;10838;52.350;9.790;2022-07-23T00:15:32;977.33;;;889.70;;
9372;SDS011;10838;52.350;9.790;2022-07-23T00:17:59;926.10;;;844.40;;
9372;SDS011;10838;52.350;9.790;2022-07-23T00:20:25;948.80;;;864.30;;
9372;SDS011;10838;52.350;9.790;2022-07-23T00:22:53;954.47;;;871.17;;
9372;SDS011;10838;52.350;9.790;2022-07-23T00:25:21;946.70;;;862.33;;
9372;SDS011;10838;52.350;9.790;2022-07-23T00:27:49;959.60;;;873.57;;
9372;SDS011;10838;52.350;9.790;2022-07-23T00:30:15;941.10;;;859.33;;
9372;SDS011;10838;52.350;9.790;2022-07-23T00:32:46;938.67;;;858.10;;
9372;SDS011;10838;52.350;9.790;2022-07-23T00:35:14;931.37;;;850.80;;
9372;SDS011;10838;52.350;9.790;2022-07-23T00:37:41;973.23;;;885.13;;
9372;SDS011;10838;52.350;9.790;2022-07-23T00:40:09;946.27;;;861.60;;
9372;SDS011;10838;52.350;9.790;2022-07-23T00:42:36;949.37;;;865.20;;
9372;SDS011;10838;52.350;9.790;2022-07-23T00:45:03;975.83;;;887.53;;
9372;SDS011;10838;52.350;9.790;2022-07-23T00:47:30;956.27;;;870.13;;
9372;SDS011;10838;52.350;9.790;2022-07-23T00:49:58;957.70;;;872.20;;
9372;SDS011;10838;52.350;9.790;2022-07-23T00:52:25;925.17;;;843.80;;
9372;SDS011;10838;52.350;9.790;2022-07-23T00:54:52;954.43;;;870.63;;
9372;SDS011;10838;52.350;9.790;2022-07-23T00:57:19;936.80;;;855.13;;
9372;SDS011;10838;52.350;9.790;2022-07-23T00:59:45;942.47;;;857.40;;
9372;SDS011;10838;52.350;9.790;2022-07-23T01:02:12;948.67;;;864.57;;
9372;SDS011;10838;52.350;9.790;2022-07-23T01:04:38;920.73;;;839.97;;
9372;SDS011;10838;52.350;9.790;2022-07-23T01:07:07;927.00;;;847.00;;
9372;SDS011;10838;52.350;9.790;2022-07-23T01:09:33;896.00;;;818.57;;
9372;SDS011;10838;52.350;9.790;2022-07-23T01:12:00;931.50;;;848.33;;
9372;SDS011;10838;52.350;9.790;2022-07-23T01:14:27;924.17;;;843.43;;
9372;SDS011;10838;52.350;9.790;2022-07-23T01:16:53;941.70;;;860.77;;
9372;SDS011;10838;52.350;9.790;2022-07-23T01:19:20;875.23;;;800.23;;
9372;SDS011;10838;52.350;9.790;2022-07-23T01:21:48;930.20;;;848.57;;
9372;SDS011;10838;52.350;9.790;2022-07-23T01:24:18;893.50;;;819.33;;
9372;SDS011;10838;52.350;9.790;2022-07-23T01:26:45;887.53;;;813.10;;
9372;SDS011;10838;52.350;9.790;2022-07-23T01:29:12;890.67;;;816.57;;
9372;SDS011;10838;52.350;9.790;2022-07-23T01:31:40;911.70;;;835.77;;
9372;SDS011;10838;52.350;9.790;2022-07-23T01:34:07;932.10;;;853.57;;
9372;SDS011;10838;52.350;9.790;2022-07-23T01:36:34;872.13;;;798.73;;
9372;SDS011;10838;52.350;9.790;2022-07-23T01:39:02;887.83;;;814.23;;
9372;SDS011;10838;52.350;9.790;2022-07-23T01:41:31;844.80;;;775.07;;
9372;SDS011;10838;52.350;9.790;2022-07-23T01:43:58;878.77;;;806.00;;
9372;SDS011;10838;52.350;9.790;2022-07-23T01:46:25;892.57;;;816.97;;
9372;SDS011;10838;52.350;9.790;2022-07-23T01:48:51;888.17;;;810.97;;
9372;SDS011;10838;52.350;9.790;2022-07-23T01:51:18;854.37;;;785.00;;
9372;SDS011;10838;52.350;9.790;2022-07-23T01:53:44;834.50;;;765.57;;
9372;SDS011;10838;52.350;9.790;2022-07-23T01:56:11;856.67;;;785.83;;
9372;SDS011;10838;52.350;9.790;2022-07-23T01:58:41;840.30;;;771.87;;
9372;SDS011;10838;52.350;9.790;2022-07-23T02:01:07;833.03;;;765.97;;
9372;SDS011;10838;52.350;9.790;2022-07-23T02:03:34;849.77;;;779.73;;
9372;SDS011;10838;52.350;9.790;2022-07-23T02:06:01;848.30;;;778.00;;
9372;SDS011;10838;52.350;9.790;2022-07-23T02:08:27;836.07;;;769.27;;
9372;SDS011;10838;52.350;9.790;2022-07-23T02:10:54;840.13;;;770.87;;
9372;SDS011;10838;52.350;9.790;2022-07-23T02:13:20;849.57;;;780.57;;
9372;SDS011;10838;52.350;9.790;2022-07-23T02:15:48;853.10;;;780.73;;
9372;SDS011;10838;52.350;9.790;2022-07-23T02:18:15;831.13;;;763.90;;
9372;SDS011;10838;52.350;9.790;2022-07-23T02:20:42;863.03;;;792.17;;
9372;SDS011;10838;52.350;9.790;2022-07-23T02:23:09;845.10;;;776.37;;
9372;SDS011;10838;52.350;9.790;2022-07-23T02:25:36;826.37;;;759.63;;
9372;SDS011;10838;52.350;9.790;2022-07-23T02:28:03;841.93;;;772.70;;
9372;SDS011;10838;52.350;9.790;2022-07-23T02:30:29;868.00;;;796.33;;
9372;SDS011;10838;52.350;9.790;2022-07-23T02:32:57;850.60;;;778.60;;
9372;SDS011;10838;52.350;9.790;2022-07-23T02:35:24;851.23;;;782.63;;
9372;SDS011;10838;52.350;9.790;2022-07-23T02:37:50;839.90;;;768.43;;
9372;SDS011;10838;52.350;9.790;2022-07-23T02:40:17;853.53;;;780.37;;
9372;SDS011;10838;52.350;9.790;2022-07-23T02:42:44;857.67;;;783.87;;
9372;SDS011;10838;52.350;9.790;2022-07-23T02:45:11;843.07;;;771.43;;
9372;SDS011;10838;52.350;9.790;2022-07-23T02:47:38;836.37;;;766.67;;
9372;SDS011;10838;52.350;9.790;2022-07-23T02:50:07;833.57;;;765.07;;
9372;SDS011;10838;52.350;9.790;2022-07-23T02:52:34;867.00;;;793.60;;
9372;SDS011;10838;52.350;9.790;2022-07-23T02:55:00;855.00;;;781.93;;
9372;SDS011;10838;52.350;9.790;2022-07-23T02:57:27;878.20;;;804.30;;
9372;SDS011;10838;52.350;9.790;2022-07-23T02:59:53;893.63;;;814.37;;
9372;SDS011;10838;52.350;9.790;2022-07-23T03:02:20;918.67;;;835.20;;
9372;SDS011;10838;52.350;9.790;2022-07-23T03:04:47;913.30;;;829.73;;
9372;SDS011;10838;52.350;9.790;2022-07-23T03:07:16;936.13;;;848.87;;
9372;SDS011;10838;52.350;9.790;2022-07-23T03:09:42;923.13;;;838.30;;
9372;SDS011;10838;52.350;9.790;2022-07-23T03:12:09;938.03;;;852.87;;
9372;SDS011;10838;52.350;9.790;2022-07-23T03:14:36;906.33;;;823.93;;
9372;SDS011;10838;52.350;9.790;2022-07-23T03:17:02;921.30;;;836.70;;
9372;SDS011;10838;52.350;9.790;2022-07-23T03:19:29;921.57;;;837.70;;
9372;SDS011;10838;52.350;9.790;2022-07-23T03:21:56;916.70;;;831.13;;
9372;SDS011;10838;52.350;9.790;2022-07-23T03:24:23;902.57;;;819.10;;
9372;SDS011;10838;52.350;9.790;2022-07-23T03:27:10;914.87;;;832.20;;
9372;SDS011;10838;52.350;9.790;2022-07-23T03:29:37;922.33;;;837.73;;
9372;SDS011;10838;52.350;9.790;2022-07-23T03:32:03;904.43;;;821.60;;
9372;SDS011;10838;52.350;9.790;2022-07-23T03:34:30;910.93;;;827.90;;
9372;SDS011;10838;52.350;9.790;2022-07-23T03:36:57;926.63;;;840.27;;
9372;SDS011;10838;52.350;9.790;2022-07-23T03:39:25;917.47;;;834.23;;
9372;SDS011;10838;52.350;9.790;2022-07-23T03:41:51;902.33;;;820.93;;
9372;SDS011;10838;52.350;9.790;2022-07-23T03:44:18;904.43;;;823.67;;
9372;SDS011;10838;52.350;9.790;2022-07-23T03:46:44;881.20;;;802.27;;
9372;SDS011;10838;52.350;9.790;2022-07-23T03:49:11;915.20;;;832.33;;
9372;SDS011;10838;52.350;9.790;2022-07-23T03:51:37;908.73;;;826.37;;
9372;SDS011;10838;52.350;9.790;2022-07-23T03:54:04;914.63;;;832.43;;
9372;SDS011;10838;52.350;9.790;2022-07-23T03:56:32;913.13;;;830.83;;
9372;SDS011;10838;52.350;9.790;2022-07-23T03:58:59;907.83;;;825.57;;
9372;SDS011;10838;52.350;9.790;2022-07-23T04:01:25;935.57;;;850.83;;
9372;SDS011;10838;52.350;9.790;2022-07-23T04:03:52;887.37;;;807.57;;
9372;SDS011;10838;52.350;9.790;2022-07-23T04:06:18;909.87;;;825.73;;
9372;SDS011;10838;52.350;9.790;2022-07-23T04:08:45;906.50;;;824.60;;
9372;SDS011;10838;52.350;9.790;2022-07-23T04:11:11;910.97;;;828.83;;
9372;SDS011;10838;52.350;9.790;2022-07-23T04:13:39;886.00;;;805.43;;
9372;SDS011;10838;52.350;9.790;2022-07-23T04:16:06;915.30;;;831.57;;
9372;SDS011;10838;52.350;9.790;2022-07-23T04:18:33;922.50;;;838.03;;
9372;SDS011;10838;52.350;9.790;2022-07-23T04:20:59;911.40;;;825.67;;
9372;SDS011;10838;52.350;9.790;2022-07-23T04:23:26;933.90;;;848.20;;
9372;SDS011;10838;52.350;9.790;2022-07-23T04:25:53;903.30;;;820.53;;
9372;SDS011;10838;52.350;9.790;2022-07-23T04:28:19;925.20;;;840.67;;
9372;SDS011;10838;52.350;9.790;2022-07-23T04:30:47;885.53;;;805.43;;
9372;SDS011;10838;52.350;9.790;2022-07-23T04:33:14;929.53;;;845.87;;
9372;SDS011;10838;52.350;9.790;2022-07-23T04:35:40;928.90;;;844.30;;
9372;SDS011;10838;52.350;9.790;2022-07-23T04:38:07;924.60;;;839.90;;
9372;SDS011;10838;52.350;9.790;2022-07-23T04:40:33;912.80;;;828.47;;
9372;SDS011;10838;52.350;9.790;2022-07-23T04:43:00;904.57;;;820.13;;
9372;SDS011;10838;52.350;9.790;2022-07-23T04:45:27;914.40;;;831.23;;
9372;SDS011;10838;52.350;9.790;2022-07-23T04:47:54;920.03;;;834.30;;
9372;SDS011;10838;52.350;9.790;2022-07-23T04:50:21;943.67;;;856.80;;
9372;SDS011;10838;52.350;9.790;2022-07-23T04:52:49;920.77;;;837.67;;
9372;SDS011;10838;52.350;9.790;2022-07-23T04:55:15;933.73;;;848.93;;
9372;SDS011;10838;52.350;9.790;2022-07-23T04:57:42;924.17;;;838.70;;
9372;SDS011;10838;52.350;9.790;2022-07-23T05:00:09;930.47;;;845.03;;
9372;SDS011;10838;52.350;9.790;2022-07-23T05:02:37;931.47;;;845.57;;
9372;SDS011;10838;52.350;9.790;2022-07-23T05:05:05;921.33;;;835.53;;
9372;SDS011;10838;52.350;9.790;2022-07-23T05:07:33;921.40;;;837.53;;
9372;SDS011;10838;52.350;9.790;2022-07-23T05:09:59;923.13;;;836.90;;
9372;SDS011;10838;52.350;9.790;2022-07-23T05:12:26;941.07;;;853.87;;
9372;SDS011;10838;52.350;9.790;2022-07-23T05:14:52;920.93;;;836.30;;
9372;SDS011;10838;52.350;9.790;2022-07-23T05:17:19;904.97;;;821.50;;
9372;SDS011;10838;52.350;9.790;2022-07-23T05:19:45;940.77;;;855.53;;
9372;SDS011;10838;52.350;9.790;2022-07-23T05:22:13;926.90;;;841.07;;
9372;SDS011;10838;52.350;9.790;2022-07-23T05:24:40;937.70;;;851.13;;
9372;SDS011;10838;52.350;9.790;2022-07-23T05:27:08;954.40;;;866.83;;
9372;SDS011;10838;52.350;9.790;2022-07-23T05:29:34;938.27;;;851.63;;
9372;SDS011;10838;52.350;9.790;2022-07-23T05:32:01;920.60;;;838.27;;
9372;SDS011;10838;52.350;9.790;2022-07-23T05:34:27;933.27;;;845.93;;
9372;SDS011;10838;52.350;9.790;2022-07-23T05:36:54;923.07;;;836.77;;
9372;SDS011;10838;52.350;9.790;2022-07-23T05:39:22;947.83;;;860.93;;
9372;SDS011;10838;52.350;9.790;2022-07-23T05:41:48;924.23;;;839.87;;
9372;SDS011;10838;52.350;9.790;2022-07-23T05:44:15;930.00;;;843.40;;
9372;SDS011;10838;52.350;9.790;2022-07-23T05:46:41;951.50;;;863.87;;
9372;SDS011;10838;52.350;9.790;2022-07-23T05:49:08;941.87;;;853.90;;
9372;SDS011;10838;52.350;9.790;2022-07-23T05:51:35;948.37;;;860.33;;
9372;SDS011;10838;52.350;9.790;2022-07-23T05:54:01;955.33;;;866.70;;
9372;SDS011;10838;52.350;9.790;2022-07-23T05:56:29;962.60;;;874.63;;
9372;SDS011;10838;52.350;9.790;2022-07-23T05:58:56;965.50;;;876.43;;
9372;SDS011;10838;52.350;9.790;2022-07-23T06:01:22;977.93;;;886.20;;
9372;SDS011;10838;52.350;9.790;2022-07-23T06:03:49;1000.40;;;907.40;;
9372;SDS011;10838;52.350;9.790;2022-07-23T06:06:15;981.87;;;890.27;;
9372;SDS011;10838;52.350;9.790;2022-07-23T06:08:42;976.93;;;889.30;;
9372;SDS011;10838;52.350;9.790;2022-07-23T06:11:08;985.20;;;894.27;;
9372;SDS011;10838;52.350;9.790;2022-07-23T06:13:36;1016.83;;;924.40;;
9372;SDS011;10838;52.350;9.790;2022-07-23T06:16:03;990.23;;;902.13;;
9372;SDS011;10838;52.350;9.790;2022-07-23T06:18:30;1004.00;;;913.43;;
9372;SDS011;10838;52.350;9.790;2022-07-23T06:20:57;989.50;;;900.20;;
9372;SDS011;10838;52.350;9.790;2022-07-23T06:23:23;1016.93;;;923.23;;
9372;SDS011;10838;52.350;9.790;2022-07-23T06:25:50;1017.27;;;921.63;;
9372;SDS011;10838;52.350;9.790;2022-07-23T06:28:16;1020.20;;;927.17;;
9372;SDS011;10838;52.350;9.790;2022-07-23T06:30:44;1013.20;;;921.03;;
9372;SDS011;10838;52.350;9.790;2022-07-23T06:33:11;1027.20;;;934.17;;
9372;SDS011;10838;52.350;9.790;2022-07-23T06:35:38;1009.70;;;914.50;;
9372;SDS011;10838;52.350;9.790;2022-07-23T06:38:04;1055.63;;;949.77;;
9372;SDS011;10838;52.350;9.790;2022-07-23T06:40:31;1046.80;;;945.87;;
9372;SDS011;10838;52.350;9.790;2022-07-23T06:42:57;1072.30;;;964.07;;
9372;SDS011;10838;52.350;9.790;2022-07-23T06:45:24;1077.17;;;966.13;;
9372;SDS011;10838;52.350;9.790;2022-07-23T06:47:52;1078.40;;;966.93;;
9372;SDS011;10838;52.350;9.790;2022-07-23T06:50:19;1205.53;;;999.90;;
9372;SDS011;10838;52.350;9.790;2022-07-23T06:52:45;1177.17;;;999.90;;
9372;SDS011;10838;52.350;9.790;2022-07-23T06:55:12;1170.47;;;999.90;;
9372;SDS011;10838;52.350;9.790;2022-07-23T06:57:38;1263.83;;;999.90;;
9372;SDS011;10838;52.350;9.790;2022-07-23T07:00:05;1277.37;;;999.90;;
9372;SDS011;10838;52.350;9.790;2022-07-23T07:02:33;1159.57;;;999.90;;
9372;SDS011;10838;52.350;9.790;2022-07-23T07:05:01;1308.63;;;999.90;;
9372;SDS011;10838;52.350;9.790;2022-07-23T07:07:27;1253.70;;;999.90;;
9372;SDS011;10838;52.350;9.790;2022-07-23T07:09:54;1333.37;;;999.90;;
9372;SDS011;10838;52.350;9.790;2022-07-23T07:12:20;1228.80;;;999.90;;
9372;SDS011;10838;52.350;9.790;2022-07-23T07:14:47;1331.57;;;999.90;;
9372;SDS011;10838;52.350;9.790;2022-07-23T07:17:13;1337.77;;;999.90;;
9372;SDS011;10838;52.350;9.790;2022-07-23T07:19:41;1245.73;;;999.90;;
9372;SDS011;10838;52.350;9.790;2022-07-23T07:22:09;1286.97;;;999.90;;
9372;SDS011;10838;52.350;9.790;2022-07-23T07:24:36;1287.30;;;999.90;;
9372;SDS011;10838;52.350;9.790;2022-07-23T07:27:02;1288.70;;;999.90;;
9372;SDS011;10838;52.350;9.790;2022-07-23T07:29:29;1250.07;;;999.90;;
9372;SDS011;10838;52.350;9.790;2022-07-23T07:31:56;1286.63;;;999.90;;
9372;SDS011;10838;52.350;9.790;2022-07-23T07:34:22;1265.27;;;999.90;;
9372;SDS011;10838;52.350;9.790;2022-07-23T07:36:49;1232.87;;;999.90;;
9372;SDS011;10838;52.350;9.790;2022-07-23T07:39:17;1147.20;;;999.90;;
9372;SDS011;10838;52.350;9.790;2022-07-23T07:41:44;1144.20;;;999.90;;
9372;SDS011;10838;52.350;9.790;2022-07-23T07:44:11;1157.37;;;999.90;;
9372;SDS011;10838;52.350;9.790;2022-07-23T07:46:37;1129.13;;;999.90;;
9372;SDS011;10838;52.350;9.790;2022-07-23T07:49:04;1163.90;;;999.90;;
9372;SDS011;10838;52.350;9.790;2022-07-23T07:51:30;1161.40;;;999.90;;
9372;SDS011;10838;52.350;9.790;2022-07-23T07:53:57;1201.60;;;999.90;;
9372;SDS011;10838;52.350;9.790;2022-07-23T07:56:25;1185.53;;;999.90;;
9372;SDS011;10838;52.350;9.790;2022-07-23T07:58:52;1162.77;;;999.90;;
9372;SDS011;10838;52.350;9.790;2022-07-23T08:01:19;1182.03;;;999.90;;
9372;SDS011;10838;52.350;9.790;2022-07-23T08:03:46;1170.73;;;999.90;;
9372;SDS011;10838;52.350;9.790;2022-07-23T08:06:13;1166.27;;;999.90;;
9372;SDS011;10838;52.350;9.790;2022-07-23T08:08:40;1212.17;;;999.90;;
9372;SDS011;10838;52.350;9.790;2022-07-23T08:11:07;1272.67;;;999.90;;
9372;SDS011;10838;52.350;9.790;2022-07-23T08:13:35;1363.17;;;999.90;;
9372;SDS011;10838;52.350;9.790;2022-07-23T08:16:02;1294.47;;;999.90;;
9372;SDS011;10838;52.350;9.790;2022-07-23T08:18:29;1216.77;;;999.90;;
9372;SDS011;10838;52.350;9.790;2022-07-23T08:20:56;1262.37;;;999.90;;
9372;SDS011;10838;52.350;9.790;2022-07-23T08:23:23;1223.33;;;999.90;;
9372;SDS011;10838;52.350;9.790;2022-07-23T08:25:50;1210.63;;;999.90;;
9372;SDS011;10838;52.350;9.790;2022-07-23T08:28:16;1214.27;;;999.90;;
9372;SDS011;10838;52.350;9.790;2022-07-23T08:30:45;1231.63;;;999.90;;
9372;SDS011;10838;52.350;9.790;2022-07-23T08:33:12;1287.20;;;999.90;;
9372;SDS011;10838;52.350;9.790;2022-07-23T08:35:40;1352.80;;;999.90;;
9372;SDS011;10838;52.350;9.790;2022-07-23T08:38:10;1322.10;;;999.90;;
9372;SDS011;10838;52.350;9.790;2022-07-23T08:40:38;1273.57;;;999.90;;
9372;SDS011;10838;52.350;9.790;2022-07-23T08:43:07;1367.83;;;999.90;;
9372;SDS011;10838;52.350;9.790;2022-07-23T08:45:35;1273.40;;;999.90;;
9372;SDS011;10838;52.350;9.790;2022-07-23T08:48:05;1245.10;;;999.90;;
9372;SDS011;10838;52.350;9.790;2022-07-23T08:50:38;1242.00;;;999.90;;
9372;SDS011;10838;52.350;9.790;2022-07-23T08:53:09;1382.63;;;999.90;;
9372;SDS011;10838;52.350;9.790;2022-07-23T08:55:36;1359.57;;;999.90;;
9372;SDS011;10838;52.350;9.790;2022-07-23T08:58:03;1297.33;;;999.90;;
9372;SDS011;10838;52.350;9.790;2022-07-23T09:00:29;1359.47;;;999.90;;
9372;SDS011;10838;52.350;9.790;2022-07-23T09:02:56;1296.27;;;999.90;;
9372;SDS011;10838;52.350;9.790;2022-07-23T09:05:25;1304.93;;;999.90;;
9372;SDS011;10838;52.350;9.790;2022-07-23T09:08:05;1321.20;;;999.90;;
9372;SDS011;10838;52.350;9.790;2022-07-23T09:13:28;1252.03;;;999.90;;
9372;SDS011;10838;52.350;9.790;2022-07-23T09:15:59;1268.07;;;999.90;;
9372;SDS011;10838;52.350;9.790;2022-07-23T09:18:31;1309.60;;;999.90;;
9372;SDS011;10838;52.350;9.790;2022-07-23T09:21:14;1286.63;;;999.90;;
9372;SDS011;10838;52.350;9.790;2022-07-23T09:23:47;1251.37;;;999.90;;
9372;SDS011;10838;52.350;9.790;2022-07-23T09:29:07;1308.07;;;999.90;;
9372;SDS011;10838;52.350;9.790;2022-07-23T09:31:48;1318.33;;;999.90;;
9372;SDS011;10838;52.350;9.790;2022-07-23T09:34:18;1244.30;;;999.90;;
9372;SDS011;10838;52.350;9.790;2022-07-23T09:36:47;1302.10;;;999.90;;
9372;SDS011;10838;52.350;9.790;2022-07-23T09:39:16;1280.03;;;999.90;;
9372;SDS011;10838;52.350;9.790;2022-07-23T09:41:51;1294.30;;;999.90;;
9372;SDS011;10838;52.350;9.790;2022-07-23T09:44:18;1249.20;;;999.90;;
9372;SDS011;10838;52.350;9.790;2022-07-23T09:46:47;1275.97;;;999.90;;
9372;SDS011;10838;52.350;9.790;2022-07-23T09:49:16;1297.70;;;999.90;;
9372;SDS011;10838;52.350;9.790;2022-07-23T09:51:46;1270.63;;;999.90;;
9372;SDS011;10838;52.350;9.790;2022-07-23T09:54:23;1278.50;;;999.90;;
9372;SDS011;10838;52.350;9.790;2022-07-23T09:56:59;1283.87;;;999.90;;
9372;SDS011;10838;52.350;9.790;2022-07-23T09:59:29;1328.07;;;999.90;;
9372;SDS011;10838;52.350;9.790;2022-07-23T10:01:58;1255.43;;;999.90;;
9372;SDS011;10838;52.350;9.790;2022-07-23T10:04:27;1293.13;;;999.90;;
9372;SDS011;10838;52.350;9.790;2022-07-23T10:06:58;1342.80;;;999.90;;
9372;SDS011;10838;52.350;9.790;2022-07-23T10:09:27;1304.93;;;999.90;;
9372;SDS011;10838;52.350;9.790;2022-07-23T10:11:56;1327.13;;;999.90;;
9372;SDS011;10838;52.350;9.790;2022-07-23T10:14:28;1326.17;;;999.90;;
9372;SDS011;10838;52.350;9.790;2022-07-23T10:16:57;1375.03;;;999.90;;
9372;SDS011;10838;52.350;9.790;2022-07-23T10:19:26;1363.50;;;999.90;;
9372;SDS011;10838;52.350;9.790;2022-07-23T10:21:54;1359.30;;;999.90;;
9372;SDS011;10838;52.350;9.790;2022-07-23T10:24:30;1316.70;;;999.90;;
9372;SDS011;10838;52.350;9.790;2022-07-23T10:27:14;1329.33;;;999.90;;
9372;SDS011;10838;52.350;9.790;2022-07-23T10:29:59;1305.63;;;999.90;;
9372;SDS011;10838;52.350;9.790;2022-07-23T10:32:31;1321.80;;;999.90;;
9372;SDS011;10838;52.350;9.790;2022-07-23T10:35:07;1409.53;;;999.90;;
9372;SDS011;10838;52.350;9.790;2022-07-23T10:37:42;1446.87;;;999.90;;
9372;SDS011;10838;52.350;9.790;2022-07-23T10:40:14;1372.80;;;999.90;;
9372;SDS011;10838;52.350;9.790;2022-07-23T10:42:42;1388.27;;;999.90;;
9372;SDS011;10838;52.350;9.790;2022-07-23T10:45:21;1394.27;;;999.90;;
9372;SDS011;10838;52.350;9.790;2022-07-23T10:47:49;1349.70;;;999.90;;
9372;SDS011;10838;52.350;9.790;2022-07-23T10:50:17;1377.03;;;999.90;;
9372;SDS011;10838;52.350;9.790;2022-07-23T10:53:07;1385.60;;;999.90;;
9372;SDS011;10838;52.350;9.790;2022-07-23T10:55:46;1370.00;;;999.90;;
9372;SDS011;10838;52.350;9.790;2022-07-23T10:58:21;1410.30;;;999.90;;
9372;SDS011;10838;52.350;9.790;2022-07-23T11:04:02;1368.63;;;999.90;;
9372;SDS011;10838;52.350;9.790;2022-07-23T11:09:38;1423.33;;;999.90;;
9372;SDS011;10838;52.350;9.790;2022-07-23T11:15:01;1465.53;;;999.90;;
9372;SDS011;10838;52.350;9.790;2022-07-23T11:17:30;1508.27;;;999.90;;
9372;SDS011;10838;52.350;9.790;2022-07-23T11:20:13;1463.10;;;999.90;;
9372;SDS011;10838;52.350;9.790;2022-07-23T11:22:48;1480.53;;;999.90;;
9372;SDS011;10838;52.350;9.790;2022-07-23T11:25:30;1428.05;;;999.90;;
9372;SDS011;10838;52.350;9.790;2022-07-23T11:28:11;1409.47;;;999.90;;
9372;SDS011;10838;52.350;9.790;2022-07-23T11:30:41;1413.55;;;999.90;;
9372;SDS011;10838;52.350;9.790;2022-07-23T11:33:19;1449.97;;;999.90;;
9372;SDS011;10838;52.350;9.790;2022-07-23T11:35:48;1523.90;;;999.90;;
9372;SDS011;10838;52.350;9.790;2022-07-23T11:38:25;1531.47;;;999.90;;
9372;SDS011;10838;52.350;9.790;2022-07-23T11:40:52;1541.47;;;999.90;;
9372;SDS011;10838;52.350;9.790;2022-07-23T11:43:22;1477.67;;;999.90;;
9372;SDS011;10838;52.350;9.790;2022-07-23T11:45:49;1565.57;;;999.90;;
9372;SDS011;10838;52.350;9.790;2022-07-23T11:48:18;1505.20;;;999.90;;
9372;SDS011;10838;52.350;9.790;2022-07-23T11:50:46;1519.78;;;999.90;;
9372;SDS011;10838;52.350;9.790;2022-07-23T11:53:13;1525.63;;;999.90;;
9372;SDS011;10838;52.350;9.790;2022-07-23T11:55:47;1533.43;;;999.90;;
9372;SDS011;10838;52.350;9.790;2022-07-23T11:58:14;1515.23;;;999.90;;
9372;SDS011;10838;52.350;9.790;2022-07-23T12:00:42;1541.80;;;999.90;;
9372;SDS011;10838;52.350;9.790;2022-07-23T12:03:08;1537.23;;;999.90;;
9372;SDS011;10838;52.350;9.790;2022-07-23T12:05:36;1569.57;;;999.90;;
9372;SDS011;10838;52.350;9.790;2022-07-23T12:08:04;1495.40;;;999.90;;
9372;SDS011;10838;52.350;9.790;2022-07-23T12:10:33;1518.37;;;999.90;;
9372;SDS011;10838;52.350;9.790;2022-07-23T12:13:02;1568.43;;;999.90;;
9372;SDS011;10838;52.350;9.790;2022-07-23T12:15:31;1524.63;;;999.90;;
9372;SDS011;10838;52.350;9.790;2022-07-23T12:18:04;1519.70;;;999.90;;
9372;SDS011;10838;52.350;9.790;2022-07-23T12:20:32;1520.00;;;999.90;;
9372;SDS011;10838;52.350;9.790;2022-07-23T12:23:01;1510.80;;;999.90;;
9372;SDS011;10838;52.350;9.790;2022-07-23T12:25:30;1493.00;;;999.90;;
9372;SDS011;10838;52.350;9.790;2022-07-23T12:27:59;1548.53;;;999.90;;
9372;SDS011;10838;52.350;9.790;2022-07-23T12:30:28;1585.53;;;999.90;;
9372;SDS011;10838;52.350;9.790;2022-07-23T12:32:58;1498.20;;;999.90;;
9372;SDS011;10838;52.350;9.790;2022-07-23T12:35:31;1576.70;;;999.90;;
9372;SDS011;10838;52.350;9.790;2022-07-23T12:38:02;1528.60;;;999.90;;
9372;SDS011;10838;52.350;9.790;2022-07-23T12:40:31;1527.47;;;999.90;;
9372;SDS011;10838;52.350;9.790;2022-07-23T12:43:00;1501.03;;;999.90;;
9372;SDS011;10838;52.350;9.790;2022-07-23T12:45:41;1534.13;;;999.90;;
9372;SDS011;10838;52.350;9.790;2022-07-23T12:48:14;1558.50;;;999.90;;
9372;SDS011;10838;52.350;9.790;2022-07-23T12:50:44;1506.78;;;999.90;;
9372;SDS011;10838;52.350;9.790;2022-07-23T12:53:16;1520.40;;;999.90;;
9372;SDS011;10838;52.350;9.790;2022-07-23T12:55:44;1515.57;;;999.90;;
9372;SDS011;10838;52.350;9.790;2022-07-23T12:58:13;1456.65;;;999.90;;
9372;SDS011;10838;52.350;9.790;2022-07-23T13:00:55;1519.88;;;999.90;;
9372;SDS011;10838;52.350;9.790;2022-07-23T13:03:24;1485.45;;;999.90;;
9372;SDS011;10838;52.350;9.790;2022-07-23T13:05:52;1508.53;;;999.90;;
9372;SDS011;10838;52.350;9.790;2022-07-23T13:08:19;1462.07;;;999.90;;
9372;SDS011;10838;52.350;9.790;2022-07-23T13:10:46;1497.47;;;999.90;;
9372;SDS011;10838;52.350;9.790;2022-07-23T13:13:15;1529.33;;;999.90;;
9372;SDS011;10838;52.350;9.790;2022-07-23T13:15:43;1442.88;;;999.90;;
9372;SDS011;10838;52.350;9.790;2022-07-23T13:18:09;1434.28;;;999.90;;
9372;SDS011;10838;52.350;9.790;2022-07-23T13:20:36;1450.47;;;999.90;;
9372;SDS011;10838;52.350;9.790;2022-07-23T13:23:05;1499.13;;;999.90;;
9372;SDS011;10838;52.350;9.790;2022-07-23T13:25:32;1514.35;;;999.90;;
9372;SDS011;10838;52.350;9.790;2022-07-23T13:27:59;1506.00;;;999.90;;
9372;SDS011;10838;52.350;9.790;2022-07-23T13:30:26;1466.70;;;999.90;;
9372;SDS011;10838;52.350;9.790;2022-07-23T13:32:53;1511.47;;;999.90;;
9372;SDS011;10838;52.350;9.790;2022-07-23T13:35:19;1417.90;;;999.90;;
9372;SDS011;10838;52.350;9.790;2022-07-23T13:37:46;1488.63;;;999.90;;
9372;SDS011;10838;52.350;9.790;2022-07-23T13:40:14;1319.83;;;999.90;;
9372;SDS011;10838;52.350;9.790;2022-07-23T13:42:40;1443.27;;;999.90;;
